Time;durP1;ratioP1;P1;durP2;ratioP2;P2;SDS_P1;SDS_P2;PMS_P1;PMS_P2;Temp;Humidity;BMP_temperature;BMP_pressure;BME280_temperature;BME280_humidity;BME280_pressure;Samples;Min_cycle;Max_cycle;Signal;HPM_P1;HPM_P2
2021/08/25 00:02:15;;;;;;;10.37;4.83;;;13.00;99.90;;;;;;5025720;28;20216;-69
2021/08/25 00:04:43;;;;;;;8.73;4.63;;;13.00;99.90;;;;;;5017919;28;20631;-68
2021/08/25 00:07:10;;;;;;;8.93;5.13;;;13.00;99.90;;;;;;5028811;28;20651;-69
2021/08/25 00:09:39;;;;;;;8.40;4.77;;;12.90;99.90;;;;;;5031280;28;20681;-68
2021/08/25 00:12:06;;;;;;;13.83;5.00;;;13.00;99.90;;;;;;5019918;28;20222;-69
2021/08/25 00:14:34;;;;;;;6.80;4.50;;;12.90;99.90;;;;;;5022394;28;20218;-68
2021/08/25 00:17:00;;;;;;;6.73;4.70;;;13.00;99.90;;;;;;5027968;28;20752;-68
2021/08/25 00:19:27;;;;;;;10.07;5.27;;;13.00;99.90;;;;;;5018430;28;20210;-68
2021/08/25 00:21:55;;;;;;;9.43;4.63;;;13.00;99.90;;;;;;5019458;28;20231;-69
2021/08/25 00:24:22;;;;;;;10.53;5.37;;;12.90;99.90;;;;;;5025972;28;20211;-68
2021/08/25 00:26:49;;;;;;;9.73;5.40;;;12.90;99.90;;;;;;5021898;28;20666;-69
2021/08/25 00:29:17;;;;;;;8.87;5.33;;;12.90;99.90;;;;;;5013189;28;20211;-68
2021/08/25 00:31:44;;;;;;;10.33;4.70;;;12.90;99.90;;;;;;5022376;28;20211;-69
2021/08/25 00:34:11;;;;;;;7.87;4.63;;;12.80;99.90;;;;;;5021226;28;20210;-69
2021/08/25 00:36:38;;;;;;;9.07;5.27;;;12.80;99.90;;;;;;5014207;28;20223;-69
2021/08/25 00:39:06;;;;;;;7.53;4.73;;;12.80;99.90;;;;;;5017883;28;20247;-69
2021/08/25 00:41:33;;;;;;;8.93;5.10;;;12.70;99.90;;;;;;5025667;28;20302;-68
2021/08/25 00:44:00;;;;;;;7.87;4.63;;;12.70;99.90;;;;;;5022108;28;20590;-68
2021/08/25 00:46:29;;;;;;;9.53;4.93;;;12.70;99.90;;;;;;5014267;28;20669;-68
2021/08/25 00:48:55;;;;;;;8.50;5.27;;;12.60;99.90;;;;;;5021367;28;20211;-69
2021/08/25 00:51:24;;;;;;;9.47;4.60;;;12.60;99.90;;;;;;5028680;28;20203;-69
2021/08/25 00:53:51;;;;;;;12.33;5.37;;;12.50;99.90;;;;;;5030493;28;20210;-69
2021/08/25 00:56:20;;;;;;;8.23;4.67;;;12.50;99.90;;;;;;5020831;28;20207;-69
2021/08/25 00:58:47;;;;;;;8.40;5.60;;;12.50;99.90;;;;;;5017519;28;20207;-68
2021/08/25 01:01:21;;;;;;;9.13;4.77;;;12.50;99.90;;;;;;5021651;28;20234;-69
2021/08/25 01:03:52;;;;;;;7.80;5.03;;;12.40;99.90;;;;;;5016453;28;20195;-69
2021/08/25 01:06:22;;;;;;;8.67;5.17;;;12.40;99.90;;;;;;5012044;28;20211;-68
2021/08/25 01:08:49;;;;;;;8.97;5.33;;;12.50;99.90;;;;;;5011675;28;20212;-69
2021/08/25 01:11:16;;;;;;;8.33;5.00;;;12.40;99.90;;;;;;5013280;28;20226;-68
2021/08/25 01:13:45;;;;;;;7.50;4.60;;;12.40;99.90;;;;;;5022773;28;20226;-69
2021/08/25 01:16:12;;;;;;;8.27;5.10;;;12.40;99.90;;;;;;5028998;28;20646;-68
2021/08/25 01:18:40;;;;;;;8.53;4.97;;;12.40;99.90;;;;;;5043325;28;20393;-69
2021/08/25 01:21:08;;;;;;;10.30;5.23;;;12.40;99.90;;;;;;5025250;28;20215;-68
2021/08/25 01:23:38;;;;;;;9.03;4.90;;;12.30;99.90;;;;;;5024661;28;20203;-68
2021/08/25 01:26:05;;;;;;;7.47;5.07;;;12.40;99.90;;;;;;5014172;28;20211;-69
2021/08/25 01:28:37;;;;;;;7.63;4.67;;;12.40;99.90;;;;;;5027707;28;20658;-68
2021/08/25 01:31:06;;;;;;;6.60;4.37;;;12.40;99.90;;;;;;5022466;28;20206;-69
2021/08/25 01:33:32;;;;;;;8.87;4.73;;;12.40;99.90;;;;;;5034792;28;20187;-69
2021/08/25 01:36:00;;;;;;;7.53;4.20;;;12.40;99.90;;;;;;5022435;28;20227;-68
2021/08/25 01:38:32;;;;;;;6.90;4.67;;;12.30;99.90;;;;;;5026197;28;20218;-69
2021/08/25 01:40:59;;;;;;;6.80;4.50;;;12.30;99.90;;;;;;5017087;28;20238;-69
2021/08/25 01:43:26;;;;;;;7.10;4.30;;;12.30;99.90;;;;;;5027990;28;20201;-69
2021/08/25 01:45:52;;;;;;;7.90;4.53;;;12.30;99.90;;;;;;5021037;28;20230;-69
2021/08/25 01:48:21;;;;;;;9.23;4.97;;;12.40;99.90;;;;;;5015482;28;20211;-68
2021/08/25 01:50:48;;;;;;;7.37;4.57;;;12.30;99.90;;;;;;5023524;28;20209;-68
2021/08/25 01:53:16;;;;;;;7.23;4.67;;;12.30;99.90;;;;;;5021904;28;20625;-69
2021/08/25 01:55:43;;;;;;;6.57;4.20;;;12.30;99.90;;;;;;5022438;28;20210;-69
2021/08/25 01:58:10;;;;;;;7.73;4.47;;;12.40;99.90;;;;;;5035024;28;20215;-68
2021/08/25 02:00:37;;;;;;;5.57;4.03;;;12.40;99.90;;;;;;5026974;28;20207;-69
2021/08/25 02:03:04;;;;;;;9.70;4.83;;;12.40;99.90;;;;;;5032594;28;20534;-69
2021/08/25 02:05:32;;;;;;;6.67;4.10;;;12.40;99.90;;;;;;5034357;28;20232;-68
2021/08/25 02:07:58;;;;;;;8.57;4.50;;;12.40;99.90;;;;;;5027488;28;20210;-69
2021/08/25 02:10:25;;;;;;;6.37;3.90;;;12.30;99.90;;;;;;5020001;28;20229;-69
2021/08/25 02:12:52;;;;;;;8.10;4.83;;;12.30;99.90;;;;;;5014603;28;20204;-69
2021/08/25 02:15:19;;;;;;;10.07;5.03;;;12.30;99.90;;;;;;5018682;28;20223;-69
2021/08/25 02:17:45;;;;;;;11.10;4.50;;;12.20;99.90;;;;;;5014655;28;20207;-68
2021/08/25 02:20:13;;;;;;;9.47;4.70;;;12.20;99.90;;;;;;5015427;28;20687;-68
2021/08/25 02:22:41;;;;;;;6.33;4.40;;;12.20;99.90;;;;;;5026236;28;20234;-69
2021/08/25 02:25:08;;;;;;;7.43;4.50;;;12.20;99.90;;;;;;5020295;28;20239;-68
2021/08/25 02:27:35;;;;;;;8.30;4.87;;;12.10;99.90;;;;;;5013917;28;20224;-68
2021/08/25 02:30:02;;;;;;;6.57;4.37;;;12.20;99.90;;;;;;5023331;28;20229;-69
2021/08/25 02:32:29;;;;;;;10.10;5.13;;;12.10;99.90;;;;;;5018613;28;20215;-68
2021/08/25 02:34:55;;;;;;;8.23;4.73;;;12.10;99.90;;;;;;5020978;28;20218;-69
2021/08/25 02:37:22;;;;;;;8.60;5.00;;;12.10;99.90;;;;;;5026736;28;20234;-68
2021/08/25 02:39:51;;;;;;;8.90;5.20;;;12.10;99.90;;;;;;5018448;28;20235;-69
2021/08/25 02:42:17;;;;;;;10.37;4.80;;;12.10;99.90;;;;;;5031888;28;20748;-68
2021/08/25 02:44:44;;;;;;;8.97;4.60;;;12.10;99.90;;;;;;5029170;28;20757;-69
2021/08/25 02:47:13;;;;;;;9.40;5.17;;;12.10;99.90;;;;;;5014052;28;20656;-68
2021/08/25 02:49:40;;;;;;;6.97;4.13;;;12.10;99.90;;;;;;5013964;28;20200;-68
2021/08/25 02:52:07;;;;;;;8.47;4.67;;;12.10;99.90;;;;;;5032580;28;20206;-69
2021/08/25 02:54:34;;;;;;;8.47;4.63;;;12.10;99.90;;;;;;5022555;28;20282;-69
2021/08/25 02:57:02;;;;;;;12.83;5.73;;;12.10;99.90;;;;;;5031053;28;20210;-69
2021/08/25 02:59:28;;;;;;;8.97;5.00;;;12.10;99.90;;;;;;5023804;28;20207;-69
2021/08/25 03:01:55;;;;;;;11.23;5.50;;;12.00;99.90;;;;;;5026567;28;20241;-69
2021/08/25 03:04:22;;;;;;;10.10;5.37;;;12.00;99.90;;;;;;5024085;28;20212;-68
2021/08/25 03:06:49;;;;;;;7.40;5.23;;;12.00;99.90;;;;;;5013576;28;20223;-68
2021/08/25 03:09:15;;;;;;;8.17;4.97;;;12.00;99.90;;;;;;5019443;28;20211;-69
2021/08/25 03:11:42;;;;;;;10.50;5.83;;;11.90;99.90;;;;;;5032178;28;20206;-68
2021/08/25 03:14:10;;;;;;;9.80;5.20;;;11.90;99.90;;;;;;5024197;28;20206;-68
2021/08/25 03:16:37;;;;;;;9.80;5.77;;;11.90;99.90;;;;;;5022576;28;20524;-69
2021/08/25 03:19:04;;;;;;;16.23;5.73;;;11.90;99.90;;;;;;5016311;28;20207;-69
2021/08/25 03:21:31;;;;;;;11.73;5.90;;;11.80;99.90;;;;;;5023858;28;20227;-69
2021/08/25 03:23:57;;;;;;;10.87;5.63;;;11.80;99.90;;;;;;5019836;28;20215;-68
2021/08/25 03:26:24;;;;;;;10.43;5.90;;;11.70;99.90;;;;;;5013420;28;20208;-69
2021/08/25 03:28:51;;;;;;;9.37;5.60;;;11.70;99.90;;;;;;5021524;28;20202;-69
2021/08/25 03:31:19;;;;;;;9.80;5.50;;;11.80;99.90;;;;;;5019761;28;20211;-68
2021/08/25 03:33:46;;;;;;;7.87;5.43;;;11.70;99.90;;;;;;5031853;28;20203;-68
2021/08/25 03:36:12;;;;;;;10.63;5.80;;;11.70;99.90;;;;;;5027756;28;20226;-69
2021/08/25 03:38:39;;;;;;;9.23;5.60;;;11.70;99.90;;;;;;5032006;28;20601;-68
2021/08/25 03:41:06;;;;;;;9.87;5.57;;;11.70;99.90;;;;;;5031853;28;20713;-68
2021/08/25 03:43:33;;;;;;;10.13;5.57;;;11.70;99.90;;;;;;5032267;28;20674;-69
2021/08/25 03:45:59;;;;;;;9.13;4.70;;;11.70;99.90;;;;;;5033001;28;20293;-68
2021/08/25 03:48:27;;;;;;;9.27;5.63;;;11.70;99.90;;;;;;5025420;28;20676;-68
2021/08/25 03:50:54;;;;;;;14.03;5.40;;;11.60;99.90;;;;;;5026512;28;20202;-69
2021/08/25 03:53:21;;;;;;;11.10;5.23;;;11.60;99.90;;;;;;5031568;28;20206;-69
2021/08/25 03:55:48;;;;;;;9.83;6.20;;;11.60;99.90;;;;;;5020511;28;20686;-69
2021/08/25 03:58:14;;;;;;;10.37;5.80;;;11.60;99.90;;;;;;5020172;28;20207;-68
2021/08/25 04:00:41;;;;;;;7.77;5.07;;;11.50;99.90;;;;;;5024082;28;20717;-69
2021/08/25 04:03:08;;;;;;;11.07;4.90;;;11.60;99.90;;;;;;5016964;28;20574;-69
2021/08/25 04:05:36;;;;;;;7.10;4.67;;;11.60;99.90;;;;;;5014832;28;20781;-69
2021/08/25 04:08:04;;;;;;;10.23;5.07;;;11.60;99.90;;;;;;5012942;28;20211;-68
2021/08/25 04:10:30;;;;;;;9.33;5.63;;;11.70;99.90;;;;;;5027215;28;20678;-68
2021/08/25 04:12:58;;;;;;;11.37;5.00;;;11.70;99.90;;;;;;5030347;28;20662;-67
2021/08/25 04:15:25;;;;;;;7.83;5.47;;;11.70;99.90;;;;;;5030878;28;20217;-69
2021/08/25 04:17:52;;;;;;;9.20;5.37;;;11.70;99.90;;;;;;5012323;28;20203;-70
2021/08/25 04:20:18;;;;;;;9.23;5.40;;;11.80;99.90;;;;;;5024833;28;20218;-68
2021/08/25 04:22:46;;;;;;;9.80;5.40;;;11.80;99.90;;;;;;5031391;28;20222;-68
2021/08/25 04:25:13;;;;;;;9.33;6.00;;;11.80;99.90;;;;;;5023176;28;20207;-69
2021/08/25 04:27:40;;;;;;;7.77;5.10;;;11.90;99.90;;;;;;5014189;28;20203;-69
2021/08/25 04:30:08;;;;;;;10.23;5.30;;;11.90;99.90;;;;;;5022463;28;20210;-68
2021/08/25 04:32:34;;;;;;;8.53;4.43;;;11.90;99.90;;;;;;5031073;28;20211;-68
2021/08/25 04:35:01;;;;;;;11.43;5.37;;;11.90;99.90;;;;;;5031686;28;20222;-68
2021/08/25 04:37:28;;;;;;;9.20;5.73;;;11.90;99.90;;;;;;5032506;28;20237;-69
2021/08/25 04:39:56;;;;;;;10.77;5.47;;;11.80;99.90;;;;;;5026541;28;20235;-68
2021/08/25 04:42:23;;;;;;;9.10;5.10;;;11.80;99.90;;;;;;5048826;28;20234;-69
2021/08/25 04:44:50;;;;;;;10.37;4.93;;;11.80;99.90;;;;;;5013175;28;20668;-71
2021/08/25 04:47:16;;;;;;;9.37;5.80;;;11.80;99.90;;;;;;5017377;28;20610;-69
2021/08/25 04:49:43;;;;;;;10.33;5.37;;;11.80;99.90;;;;;;5023480;28;20207;-69
2021/08/25 04:52:10;;;;;;;13.40;5.30;;;11.80;99.90;;;;;;5017957;28;20211;-69
2021/08/25 04:54:37;;;;;;;10.57;5.17;;;11.80;99.90;;;;;;5019492;28;20215;-69
2021/08/25 04:57:05;;;;;;;10.13;5.57;;;11.80;99.90;;;;;;5025957;28;20574;-69
2021/08/25 04:59:31;;;;;;;9.13;5.20;;;11.80;99.90;;;;;;5014500;28;20434;-68
2021/08/25 05:01:59;;;;;;;9.53;6.07;;;11.80;99.90;;;;;;5029696;28;20245;-69
2021/08/25 05:04:25;;;;;;;8.17;5.50;;;11.80;99.90;;;;;;5025838;28;20211;-69
2021/08/25 05:06:52;;;;;;;12.13;5.70;;;11.90;99.90;;;;;;5015832;28;20211;-69
2021/08/25 05:09:19;;;;;;;13.00;5.63;;;11.90;99.90;;;;;;5026592;28;20207;-68
2021/08/25 05:11:46;;;;;;;14.07;6.07;;;11.90;99.90;;;;;;5032940;28;20199;-69
2021/08/25 05:14:14;;;;;;;9.00;5.60;;;11.90;99.90;;;;;;5031419;28;20207;-69
2021/08/25 05:16:40;;;;;;;10.23;5.93;;;12.00;99.90;;;;;;5035105;28;20203;-69
2021/08/25 05:19:07;;;;;;;10.87;5.40;;;12.00;99.90;;;;;;5034838;28;20211;-68
2021/08/25 05:21:34;;;;;;;9.97;5.60;;;12.10;99.90;;;;;;5026572;28;20670;-70
2021/08/25 05:24:01;;;;;;;8.97;5.60;;;12.10;99.90;;;;;;5035475;28;20211;-68
2021/08/25 05:26:28;;;;;;;9.67;5.00;;;12.10;99.90;;;;;;5035707;28;20230;-69
2021/08/25 05:28:56;;;;;;;9.27;5.90;;;12.20;99.90;;;;;;5034738;28;20222;-69
2021/08/25 05:31:25;;;;;;;8.57;4.67;;;12.30;99.90;;;;;;5035488;28;20210;-69
2021/08/25 05:33:52;;;;;;;15.60;5.40;;;12.30;99.90;;;;;;5034681;28;20217;-68
2021/08/25 05:36:19;;;;;;;8.50;5.27;;;12.40;99.90;;;;;;5035189;28;20246;-70
2021/08/25 05:38:46;;;;;;;9.37;6.23;;;12.50;99.90;;;;;;5034094;28;20230;-69
2021/08/25 05:41:12;;;;;;;9.83;5.70;;;12.50;99.90;;;;;;5034503;28;20194;-69
2021/08/25 05:43:39;;;;;;;12.73;6.33;;;12.60;99.90;;;;;;5034408;28;20719;-68
2021/08/25 05:46:06;;;;;;;9.93;6.30;;;12.70;99.90;;;;;;5034455;28;20207;-70
2021/08/25 05:48:34;;;;;;;14.33;6.27;;;12.70;99.90;;;;;;5034713;28;20635;-68
2021/08/25 05:51:01;;;;;;;11.27;5.87;;;12.80;99.90;;;;;;5033785;28;20211;-68
2021/08/25 05:53:27;;;;;;;10.33;5.67;;;12.80;99.90;;;;;;5031567;28;20210;-68
2021/08/25 05:55:54;;;;;;;10.83;5.90;;;12.80;99.90;;;;;;5014256;28;20277;-68
2021/08/25 05:58:21;;;;;;;6.70;5.10;;;12.90;99.90;;;;;;5028488;28;20213;-68
2021/08/25 06:00:48;;;;;;;11.10;5.33;;;13.00;99.90;;;;;;5031406;28;20206;-69
2021/08/25 06:03:14;;;;;;;9.60;5.77;;;13.00;99.90;;;;;;5030643;28;20627;-69
2021/08/25 06:05:42;;;;;;;8.70;6.00;;;13.10;99.90;;;;;;5031442;28;20221;-69
2021/08/25 06:08:09;;;;;;;12.33;5.80;;;13.20;99.90;;;;;;5032471;28;20206;-71
2021/08/25 06:10:36;;;;;;;11.83;5.70;;;13.30;99.90;;;;;;5032070;28;20207;-68
2021/08/25 06:13:03;;;;;;;14.23;6.60;;;13.50;99.90;;;;;;5033112;28;20206;-69
2021/08/25 06:15:29;;;;;;;9.00;5.30;;;13.50;99.90;;;;;;5034066;28;20207;-69
2021/08/25 06:17:56;;;;;;;11.43;6.13;;;13.50;99.90;;;;;;5029467;28;20213;-69
2021/08/25 06:20:23;;;;;;;10.73;6.50;;;13.60;99.90;;;;;;5032624;28;20206;-68
2021/08/25 06:22:51;;;;;;;10.70;6.00;;;13.70;99.90;;;;;;5029912;28;20258;-67
2021/08/25 06:25:18;;;;;;;11.17;5.37;;;13.80;99.90;;;;;;5033482;28;20210;-69
2021/08/25 06:27:45;;;;;;;13.13;6.10;;;13.90;99.90;;;;;;5033800;28;20199;-68
2021/08/25 06:30:12;;;;;;;9.10;5.60;;;14.00;99.90;;;;;;5033785;28;20214;-69
2021/08/25 06:32:39;;;;;;;9.70;5.10;;;14.10;99.90;;;;;;5031556;28;20213;-67
2021/08/25 06:35:07;;;;;;;8.63;5.90;;;14.20;99.90;;;;;;5033109;28;20207;-70
2021/08/25 06:37:33;;;;;;;12.27;6.00;;;14.30;99.90;;;;;;5035060;28;20238;-70
2021/08/25 06:40:02;;;;;;;11.17;5.27;;;14.30;99.90;;;;;;5033551;28;20249;-71
2021/08/25 06:42:28;;;;;;;9.13;4.83;;;14.50;99.90;;;;;;5032893;28;20227;-68
2021/08/25 06:44:55;;;;;;;12.20;5.47;;;14.60;99.90;;;;;;5033078;28;20207;-71
2021/08/25 06:47:22;;;;;;;7.83;5.37;;;14.70;99.90;;;;;;5033419;28;20551;-70
2021/08/25 06:49:49;;;;;;;8.40;4.83;;;14.80;99.90;;;;;;5033028;28;20318;-70
2021/08/25 06:52:15;;;;;;;11.40;5.53;;;14.80;99.90;;;;;;5029782;28;20213;-73
2021/08/25 06:54:42;;;;;;;8.53;5.30;;;15.00;99.90;;;;;;5034327;28;20678;-71
2021/08/25 06:57:11;;;;;;;10.13;5.77;;;15.10;99.90;;;;;;5035267;28;20221;-72
2021/08/25 06:59:37;;;;;;;8.73;5.00;;;15.20;99.90;;;;;;5024407;28;20215;-68
2021/08/25 07:02:05;;;;;;;8.80;5.07;;;15.30;99.90;;;;;;5032176;28;20215;-70
2021/08/25 07:04:32;;;;;;;11.17;5.50;;;15.40;99.90;;;;;;5032544;28;20207;-69
2021/08/25 07:06:58;;;;;;;17.67;6.27;;;15.40;99.90;;;;;;5031670;28;20294;-68
2021/08/25 07:09:25;;;;;;;15.03;6.17;;;15.70;99.90;;;;;;5033098;28;20224;-69
2021/08/25 07:11:52;;;;;;;12.97;5.70;;;15.80;99.90;;;;;;5036005;28;20221;-68
2021/08/25 07:14:20;;;;;;;16.00;5.40;;;15.90;99.90;;;;;;5032537;28;20202;-67
2021/08/25 07:16:47;;;;;;;7.70;4.90;;;16.10;99.90;;;;;;5033560;28;20210;-67
2021/08/25 07:19:13;;;;;;;11.43;4.10;;;16.30;99.90;;;;;;5034501;28;20637;-67
2021/08/25 07:21:40;;;;;;;9.23;4.87;;;16.60;99.90;;;;;;5032415;28;20203;-67
2021/08/25 07:24:07;;;;;;;9.33;5.80;;;16.90;99.90;;;;;;5031595;28;20750;-65
2021/08/25 07:26:33;;;;;;;11.63;5.13;;;17.10;99.90;;;;;;5032637;28;20217;-65
2021/08/25 07:29:00;;;;;;;14.97;6.17;;;17.30;99.90;;;;;;5031491;28;20230;-64
2021/08/25 07:31:29;;;;;;;11.83;5.70;;;17.50;99.90;;;;;;5031818;28;20199;-64
2021/08/25 07:33:55;;;;;;;12.13;5.33;;;17.50;99.90;;;;;;5027085;28;20577;-65
2021/08/25 07:36:22;;;;;;;9.63;5.37;;;17.60;99.90;;;;;;5025582;28;20275;-65
2021/08/25 07:38:50;;;;;;;9.77;4.73;;;17.60;99.90;;;;;;5027375;28;20218;-65
2021/08/25 07:41:16;;;;;;;8.00;4.83;;;17.60;99.90;;;;;;5030001;28;20570;-65
2021/08/25 07:43:43;;;;;;;7.20;4.53;;;17.70;99.90;;;;;;5028362;28;20226;-64
2021/08/25 07:46:10;;;;;;;6.07;4.33;;;17.70;99.90;;;;;;5032158;28;20264;-68
2021/08/25 07:48:38;;;;;;;8.27;4.47;;;17.90;99.90;;;;;;5031968;28;20229;-69
2021/08/25 07:51:08;;;;;;;8.63;4.77;;;18.10;99.90;;;;;;5031516;28;20567;-67
2021/08/25 07:53:35;;;;;;;6.72;4.82;;;18.20;99.90;;;;;;5024708;28;20630;-67
2021/08/25 07:56:02;;;;;;;8.20;5.20;;;18.30;99.90;;;;;;5022829;28;20218;-67
2021/08/25 07:58:29;;;;;;;14.43;5.60;;;18.30;99.90;;;;;;5034962;28;20304;-68
2021/08/25 08:00:56;;;;;;;7.50;4.33;;;18.50;99.90;;;;;;5031652;28;20539;-69
2021/08/25 08:03:23;;;;;;;6.85;4.43;;;18.70;99.90;;;;;;5029760;28;20241;-68
2021/08/25 08:05:51;;;;;;;6.05;3.95;;;18.80;99.90;;;;;;5018353;28;20668;-66
2021/08/25 08:08:20;;;;;;;8.57;4.77;;;19.00;99.90;;;;;;5031413;28;20655;-70
2021/08/25 08:10:47;;;;;;;6.90;4.25;;;19.10;99.90;;;;;;5014142;28;20207;-69
2021/08/25 08:13:14;;;;;;;7.15;4.45;;;19.20;99.90;;;;;;5028061;28;20214;-68
2021/08/25 08:15:41;;;;;;;8.57;4.63;;;19.40;99.90;;;;;;5018504;28;20206;-69
2021/08/25 08:18:13;;;;;;;8.68;4.18;;;19.30;99.90;;;;;;5017403;28;20211;-69
2021/08/25 08:20:40;;;;;;;10.35;3.85;;;19.30;99.40;;;;;;5024172;28;20206;-67
2021/08/25 08:23:08;;;;;;;6.93;3.47;;;19.40;99.10;;;;;;5016993;28;20231;-66
2021/08/25 08:25:35;;;;;;;9.43;3.60;;;19.60;98.60;;;;;;5027743;28;20589;-68
2021/08/25 08:28:02;;;;;;;6.53;3.63;;;19.80;97.60;;;;;;5029051;28;20211;-68
2021/08/25 08:30:28;;;;;;;6.15;4.50;;;19.90;96.70;;;;;;5027620;28;20544;-69
2021/08/25 08:32:55;;;;;;;5.75;3.97;;;20.00;96.10;;;;;;5031891;28;20203;-69
2021/08/25 08:35:22;;;;;;;7.47;3.80;;;20.00;95.60;;;;;;5031516;28;20204;-70
2021/08/25 08:37:49;;;;;;;7.25;3.40;;;19.90;94.90;;;;;;5031228;28;20313;-68
2021/08/25 08:40:17;;;;;;;6.25;3.58;;;19.90;94.20;;;;;;5028192;28;20279;-67
2021/08/25 08:42:44;;;;;;;4.43;3.33;;;20.00;94.20;;;;;;5026974;28;20603;-68
2021/08/25 08:45:12;;;;;;;6.25;3.17;;;20.10;94.10;;;;;;5030453;28;20203;-67
2021/08/25 08:47:39;;;;;;;7.00;3.70;;;20.20;93.50;;;;;;5025015;28;20214;-67
2021/08/25 08:50:06;;;;;;;4.68;3.47;;;20.30;92.60;;;;;;5030943;28;20666;-67
2021/08/25 08:52:34;;;;;;;8.00;4.60;;;20.30;91.90;;;;;;5030052;28;20595;-69
2021/08/25 08:55:01;;;;;;;7.28;4.18;;;20.40;91.60;;;;;;5029668;28;20218;-69
2021/08/25 08:57:29;;;;;;;5.10;3.20;;;20.70;91.30;;;;;;5016912;28;20222;-68
2021/08/25 08:59:55;;;;;;;6.15;4.00;;;20.90;90.40;;;;;;5028492;28;20202;-67
2021/08/25 09:02:41;;;;;;;8.63;3.78;;;21.00;87.70;;;;;;5029477;28;20667;-69
2021/08/25 09:05:20;;;;;;;5.03;4.03;;;21.00;85.50;;;;;;5029706;28;20230;-69
2021/08/25 09:07:56;;;;;;;7.43;3.85;;;21.10;83.40;;;;;;5028005;28;20229;-68
2021/08/25 09:10:28;;;;;;;7.03;3.70;;;21.20;83.30;;;;;;5027905;28;20285;-69
2021/08/25 09:12:58;;;;;;;6.10;3.35;;;21.40;83.60;;;;;;5028874;28;20209;-69
2021/08/25 09:15:27;;;;;;;9.05;3.67;;;21.60;82.50;;;;;;5030932;28;20440;-69
2021/08/25 09:18:03;;;;;;;4.57;3.45;;;21.80;80.60;;;;;;5031569;28;20198;-69
2021/08/25 09:20:31;;;;;;;8.35;3.53;;;21.80;77.60;;;;;;5016575;28;20210;-67
2021/08/25 09:23:13;;;;;;;6.20;3.75;;;21.70;75.80;;;;;;5029479;28;20217;-66
2021/08/25 09:25:41;;;;;;;6.20;3.83;;;21.70;76.30;;;;;;5030467;28;20207;-71
2021/08/25 09:28:10;;;;;;;6.10;3.55;;;21.90;76.90;;;;;;5030204;28;20573;-68
2021/08/25 09:30:51;;;;;;;7.75;4.03;;;22.00;75.30;;;;;;5029602;28;20652;-67
2021/08/25 09:33:18;;;;;;;6.53;3.22;;;22.00;72.60;;;;;;5029781;28;20206;-67
2021/08/25 09:35:46;;;;;;;7.88;3.72;;;22.00;71.20;;;;;;5028281;28;20702;-67
2021/08/25 09:38:18;;;;;;;7.60;4.10;;;22.00;70.10;;;;;;5025628;28;20207;-67
2021/08/25 09:40:48;;;;;;;7.20;4.00;;;21.70;70.30;;;;;;5029939;28;20233;-68
2021/08/25 09:43:34;;;;;;;6.53;3.53;;;21.60;71.30;;;;;;5029137;28;20585;-69
2021/08/25 09:46:12;;;;;;;7.15;3.60;;;21.40;72.70;;;;;;5029873;28;20215;-67
2021/08/25 09:48:41;;;;;;;8.48;3.80;;;21.20;72.70;;;;;;5033710;28;20199;-67
2021/08/25 09:51:10;;;;;;;6.47;4.00;;;21.20;72.70;;;;;;5034440;28;20207;-67
2021/08/25 09:53:37;;;;;;;5.68;3.92;;;21.10;70.70;;;;;;5027227;28;20207;-70
2021/08/25 09:56:20;;;;;;;6.93;3.38;;;21.00;70.40;;;;;;5033683;28;20214;-69
2021/08/25 09:58:48;;;;;;;8.05;3.95;;;21.00;70.80;;;;;;5026940;28;20206;-71
2021/08/25 10:01:18;;;;;;;4.18;3.05;;;20.90;71.00;;;;;;5028748;28;20686;-66
2021/08/25 10:03:45;;;;;;;5.57;3.53;;;20.70;70.60;;;;;;5033639;28;20586;-69
2021/08/25 10:06:12;;;;;;;8.52;3.85;;;20.70;71.30;;;;;;5027899;28;20207;-67
2021/08/25 10:08:39;;;;;;;4.72;3.42;;;20.90;71.70;;;;;;5031264;28;20221;-68
2021/08/25 10:11:08;;;;;;;6.25;3.90;;;21.20;70.50;;;;;;5030673;28;20215;-67
2021/08/25 10:13:35;;;;;;;5.38;3.15;;;21.30;70.40;;;;;;5033511;28;20199;-68
2021/08/25 10:16:04;;;;;;;5.95;3.13;;;21.40;70.20;;;;;;5034299;28;20206;-67
2021/08/25 10:18:37;;;;;;;5.82;3.17;;;21.50;70.30;;;;;;5027561;28;20211;-68
2021/08/25 10:21:24;;;;;;;6.20;3.38;;;21.60;70.10;;;;;;5027219;28;20202;-68
2021/08/25 10:24:04;;;;;;;5.32;3.38;;;21.60;69.50;;;;;;5030904;28;20223;-68
2021/08/25 10:26:31;;;;;;;4.82;3.35;;;21.60;69.50;;;;;;5030279;28;20210;-68
2021/08/25 10:29:07;;;;;;;4.65;3.17;;;21.50;70.10;;;;;;5033469;28;20634;-68
2021/08/25 10:32:16;;;;;;;5.15;3.15;;;21.60;71.00;;;;;;5031849;28;20210;-67
2021/08/25 10:34:44;;;;;;;3.60;2.90;;;21.80;69.90;;;;;;5013993;28;20215;-68
2021/08/25 10:37:29;;;;;;;5.78;3.03;;;22.10;68.40;;;;;;5030290;28;20227;-67
2021/08/25 10:40:02;;;;;;;5.10;2.85;;;22.20;67.60;;;;;;5029582;28;20245;-68
2021/08/25 10:42:53;;;;;;;4.03;2.97;;;22.20;68.40;;;;;;5023268;28;20203;-67
2021/08/25 10:45:59;;;;;;;6.55;2.97;;;22.30;67.70;;;;;;5029636;28;20215;-68
2021/08/25 10:48:55;;;;;;;5.40;2.55;;;22.40;68.60;;;;;;5027908;28;20206;-68
2021/08/25 10:51:24;;;;;;;3.08;2.20;;;22.50;67.10;;;;;;5023139;28;20642;-68
2021/08/25 10:53:53;;;;;;;4.97;2.70;;;22.80;67.10;;;;;;5023521;28;20210;-68
2021/08/25 10:56:33;;;;;;;3.20;1.85;;;23.10;66.50;;;;;;5023987;28;20650;-67
2021/08/25 10:59:03;;;;;;;1.98;1.50;;;23.20;66.10;;;;;;5030250;28;20240;-68
2021/08/25 11:01:31;;;;;;;2.22;1.80;;;23.30;64.80;;;;;;5024070;28;20616;-68
2021/08/25 11:04:01;;;;;;;2.72;1.63;;;23.20;64.50;;;;;;5024953;28;20246;-68
2021/08/25 11:06:33;;;;;;;2.55;1.63;;;22.80;64.20;;;;;;5026738;28;20234;-67
2021/08/25 11:09:18;;;;;;;1.88;1.38;;;22.30;64.70;;;;;;5022111;28;20222;-68
2021/08/25 11:11:47;;;;;;;1.52;1.35;;;22.00;65.50;;;;;;5025820;28;20213;-68
2021/08/25 11:14:23;;;;;;;3.97;1.67;;;21.70;66.00;;;;;;5023415;28;20624;-68
2021/08/25 11:16:51;;;;;;;2.05;1.83;;;21.50;67.40;;;;;;5022645;28;20314;-68
2021/08/25 11:19:30;;;;;;;2.75;1.70;;;21.20;67.30;;;;;;5021694;28;20216;-66
2021/08/25 11:21:59;;;;;;;2.55;1.65;;;21.20;68.40;;;;;;5016987;28;20650;-68
2021/08/25 11:24:39;;;;;;;3.33;1.77;;;21.30;69.20;;;;;;5021783;28;20319;-68
2021/08/25 11:27:22;;;;;;;4.35;1.92;;;21.40;68.80;;;;;;5021878;28;20214;-68
2021/08/25 11:30:10;;;;;;;2.40;2.13;;;21.50;68.40;;;;;;5014984;28;20210;-68
2021/08/25 11:32:42;;;;;;;2.65;2.08;;;21.20;68.20;;;;;;5018545;28;20222;-67
2021/08/25 11:35:12;;;;;;;1.98;1.50;;;21.00;68.50;;;;;;5019860;28;20230;-68
2021/08/25 11:37:42;;;;;;;2.53;1.80;;;20.70;69.40;;;;;;5020366;28;20230;-68
2021/08/25 11:40:10;;;;;;;2.38;1.67;;;20.50;69.80;;;;;;5020689;28;20652;-69
2021/08/25 11:42:37;;;;;;;4.28;1.50;;;20.30;70.60;;;;;;5027515;28;20234;-68
2021/08/25 11:45:16;;;;;;;3.17;1.90;;;20.20;70.90;;;;;;5021047;28;20226;-69
2021/08/25 11:47:51;;;;;;;1.70;1.50;;;20.20;71.10;;;;;;5027068;28;20206;-68
2021/08/25 11:50:24;;;;;;;1.80;1.50;;;20.40;72.50;;;;;;5022921;28;20218;-67
2021/08/25 11:52:52;;;;;;;3.08;2.03;;;20.70;71.10;;;;;;5019440;28;20734;-67
2021/08/25 11:55:20;;;;;;;4.97;2.08;;;20.90;69.80;;;;;;5023265;28;20207;-68
2021/08/25 11:57:48;;;;;;;3.50;2.13;;;21.00;69.40;;;;;;5029269;28;20202;-67
2021/08/25 12:00:18;;;;;;;2.28;1.50;;;21.00;68.90;;;;;;5021941;28;20424;-68
2021/08/25 12:02:52;;;;;;;2.17;1.70;;;20.90;68.60;;;;;;5021614;28;20210;-68
2021/08/25 12:05:22;;;;;;;2.83;1.50;;;20.70;68.60;;;;;;5019292;28;20227;-67
2021/08/25 12:08:03;;;;;;;2.97;1.67;;;20.50;69.30;;;;;;5020945;28;20213;-69
2021/08/25 12:10:31;;;;;;;2.58;1.60;;;20.40;69.80;;;;;;5017898;28;20576;-68
2021/08/25 12:12:58;;;;;;;2.83;1.63;;;20.30;70.00;;;;;;5023195;28;20214;-68
2021/08/25 12:15:47;;;;;;;2.90;1.52;;;20.20;70.90;;;;;;5024555;28;20203;-68
2021/08/25 12:18:14;;;;;;;4.90;1.77;;;20.10;71.70;;;;;;5020861;28;20291;-68
2021/08/25 12:20:44;;;;;;;1.90;1.55;;;20.00;71.80;;;;;;5019404;28;20210;-68
2021/08/25 12:23:12;;;;;;;2.33;1.40;;;19.90;72.00;;;;;;5016281;28;20215;-68
2021/08/25 12:25:42;;;;;;;2.88;1.35;;;19.80;72.50;;;;;;5017800;28;20229;-67
2021/08/25 12:28:10;;;;;;;1.52;1.42;;;19.80;73.20;;;;;;5018106;28;20215;-67
2021/08/25 12:30:38;;;;;;;1.80;1.10;;;19.90;73.70;;;;;;5019893;28;20314;-68
2021/08/25 12:33:06;;;;;;;1.85;1.50;;;20.20;73.70;;;;;;5030927;28;20206;-67
2021/08/25 12:35:34;;;;;;;4.25;1.60;;;20.30;72.60;;;;;;5025066;28;20206;-68
2021/08/25 12:38:02;;;;;;;2.53;1.63;;;20.50;72.00;;;;;;5031092;28;20305;-67
2021/08/25 12:40:30;;;;;;;2.30;1.50;;;20.60;71.80;;;;;;5030841;28;20230;-67
2021/08/25 12:42:58;;;;;;;5.05;1.50;;;20.60;71.30;;;;;;5030074;28;20206;-69
2021/08/25 12:45:26;;;;;;;3.33;1.77;;;20.60;71.00;;;;;;5022477;28;20219;-71
2021/08/25 12:47:54;;;;;;;2.88;1.42;;;20.50;70.80;;;;;;5031296;28;20549;-69
2021/08/25 12:50:23;;;;;;;2.80;1.67;;;20.30;71.10;;;;;;5031166;28;20206;-68
2021/08/25 12:52:51;;;;;;;2.85;1.63;;;20.20;71.30;;;;;;5012050;28;20253;-71
2021/08/25 12:55:20;;;;;;;3.00;1.85;;;20.00;71.00;;;;;;5017641;28;20203;-68